EGPHEGAC

Guest
Details From EGPH - Edinburgh
To EGAC - Belfast City
Flight Number -
Tags generated
Created
Modified
Stats Distance 117 nm / 217 km
Max Altitude 10,200 ft / 3,109 m
Waypoints 3
Social Downloads 5
Likes 0
Share VATSIM

Download

Looking for another format? Having issues loading an existing format? Contact us
Advertisement - Login to hide

Notes

Basic altitude profile: - Ascent Rate: 2500ft/min - Ascent Speed: 250kts - Cruise Altitude: 35000ft - Cruise Speed: 420kts - Descent Rate: 1500ft/min - Descent Speed: 250kts

Route

EGPH GIRVA EGAC

ID Type Via Altitude Latitude Longitude Leg Dist Tot Dist Heading (true) Name
O EGPH APT - 0 ft / 0 m 55.94869˚ -3.35972˚ - 0 nm - Edinburgh
GIRVA FIX - 10,200 ft / 3,109 m 55.18556˚ -4.89639˚ 69 nm 69 nm 229° / 228° -
O EGAC APT - 0 ft / 0 m 54.61811˚ -5.87258˚ 47 nm 117 nm 225° / 224° Belfast City

Altitude Profile

Advertisement - Login to hide

EGPH

Details ICAO EGPH (EDI)
Name Edinburgh
Region United Kingdom
Timezone Europe/London (UTC+1.0)
Stats Elevation 135 ft / 41 m (AMSL)
Location 55.948685° -3.359718°
Runways 2
Magnetic Variation 2.222° W

METAR

EGPH 271320Z 07010KT 4000 HZ VCFG BKN002 11/10 Q1023

Decode

TAF

TAF EGPH 271100Z 2712/2812 07009KT 4000 BR BKN005 TEMPO 2712/2721 1200 BKN001 PROB40 2721/2809 0300 FG OVC000 BECMG 2809/2812 9999 NSW SCT010

Decode

Departure Runways

ID Width Length Bearing (true) Bearing (mag) Surface Threshold Offset Overrun Length
06 144 ft / 44 m 8,366 ft / 2,550 m 58.80° 61.02° Asphalt 705 ft / 215 m 200 ft / 61 m
12 151 ft / 46 m 5,878 ft / 1,792 m 118.67° 120.89° Asphalt 0 ft / 0 m 0 ft / 0 m
24 144 ft / 44 m 8,366 ft / 2,550 m 238.83° 241.05° Asphalt 679 ft / 207 m 207 ft / 63 m
30 151 ft / 46 m 5,878 ft / 1,792 m 298.69° 300.91° Asphalt 194 ft / 59 m 253 ft / 77 m

EGAC

Details ICAO EGAC (BHD)
Name Belfast City
Region United Kingdom
Timezone Europe/London (UTC+1.0)
Stats Elevation 15 ft / 5 m (AMSL)
Location 54.618108° -5.872575°
Runways 1
Magnetic Variation 3.015° W

METAR

EGAC 271320Z AUTO 01008KT 9999 NCD 18/12 Q1018

Decode

TAF

Not found

Destination Runways

ID Width Length Bearing (true) Bearing (mag) Surface Threshold Offset Overrun Length
04 148 ft / 45 m 6,009 ft / 1,832 m 34.93° 37.94° Asphalt 302 ft / 92 m 0 ft / 0 m
22 148 ft / 45 m 6,009 ft / 1,832 m 214.94° 217.95° Asphalt 0 ft / 0 m 0 ft / 0 m

Approach Navaids

Runway Type Ident Frequency Range Bearing (true) Bearing (mag) Slope Elevation
04 Localiser HBD 108.10 MHz 18 nm / 33 km 34.92° 37.94° - 15 ft / 5 m (AMSL)
04 DME HBD 108.10 MHz 18 nm / 33 km - - - 30 ft / 9 m (AMSL)
22 Localiser IBFH 108.10 MHz 18 nm / 33 km 214.69° 217.71° - 15 ft / 5 m (AMSL)
22 Glidescope IBFH 108.10 MHz 10 nm / 19 km 214.94° 217.95° 3.00° 50 ft / 15 m (AMSL)
22 DME IBFH 108.10 MHz 18 nm / 33 km - - - 30 ft / 9 m (AMSL)

Popular Alternatives